createdAt,value
2018-02-07T00:01:40.586Z,84.70
2018-02-07T00:04:08.171Z,84.50
2018-02-07T00:06:36.548Z,84.80
2018-02-07T00:09:04.215Z,84.70
2018-02-07T00:11:32.568Z,84.80
2018-02-07T00:14:00.218Z,84.80
2018-02-07T00:16:31.788Z,84.70
2018-02-07T00:18:59.432Z,84.90
2018-02-07T00:21:27.058Z,85.90
2018-02-07T00:23:54.682Z,85.80
2018-02-07T00:26:22.299Z,86.00
2018-02-07T00:28:49.926Z,85.90
2018-02-07T00:31:17.558Z,86.00
2018-02-07T00:33:45.146Z,85.90
2018-02-07T00:36:13.578Z,86.40
2018-02-07T00:38:41.190Z,86.40
2018-02-07T00:41:08.791Z,86.20
2018-02-07T00:43:36.395Z,86.30
2018-02-07T00:46:04.737Z,85.80
2018-02-07T00:48:32.386Z,85.80
2018-02-07T00:50:59.994Z,85.70
2018-02-07T00:53:28.362Z,86.00
2018-02-07T00:55:56.002Z,85.90
2018-02-07T00:58:23.663Z,86.20
2018-02-07T01:00:51.234Z,86.90
2018-02-07T01:03:18.835Z,86.80
2018-02-07T01:08:40.775Z,86.10
2018-02-07T01:11:09.111Z,86.10
2018-02-07T01:13:36.710Z,86.00
2018-02-07T01:16:05.029Z,86.10
2018-02-07T01:18:32.609Z,86.10
2018-02-07T01:21:00.186Z,86.70
2018-02-07T01:23:27.842Z,86.80
2018-02-07T01:25:55.455Z,86.10
2018-02-07T01:28:23.039Z,85.90
2018-02-07T01:30:50.654Z,86.60
2018-02-07T01:33:18.252Z,87.20
2018-02-07T01:35:45.883Z,87.80
2018-02-07T01:38:13.526Z,87.20
2018-02-07T01:40:41.906Z,86.20
2018-02-07T01:43:09.513Z,86.10
2018-02-07T01:45:37.140Z,86.00
2018-02-07T01:48:04.747Z,86.20
2018-02-07T01:50:32.342Z,85.90
2018-02-07T01:53:00.707Z,86.00
2018-02-07T01:55:28.295Z,86.00
2018-02-07T01:57:55.922Z,85.60
2018-02-07T02:00:23.488Z,86.30
2018-02-07T02:02:51.116Z,86.70
2018-02-07T02:05:18.678Z,87.40
2018-02-07T02:07:46.259Z,87.20
2018-02-07T02:10:13.898Z,86.80
2018-02-07T02:12:41.468Z,87.00
2018-02-07T02:15:09.103Z,86.50
2018-02-07T02:17:36.666Z,85.90
2018-02-07T02:20:04.294Z,85.60
2018-02-07T02:22:31.923Z,86.20
2018-02-07T02:24:59.566Z,86.10
2018-02-07T02:27:27.135Z,86.50
2018-02-07T02:29:54.721Z,86.50
2018-02-07T02:32:23.123Z,87.50
2018-02-07T02:34:54.199Z,87.50
2018-02-07T02:37:21.802Z,87.20
2018-02-07T02:39:50.172Z,87.00
2018-02-07T02:42:17.789Z,86.90
2018-02-07T02:44:45.375Z,87.40
2018-02-07T02:47:13.017Z,88.10
2018-02-07T02:49:40.587Z,87.70
2018-02-07T02:52:08.134Z,87.00
2018-02-07T02:54:35.747Z,86.40
2018-02-07T02:57:03.375Z,86.90
2018-02-07T02:59:31.000Z,87.60
2018-02-07T03:01:58.622Z,88.10
2018-02-07T03:04:26.973Z,88.00
2018-02-07T03:06:54.590Z,87.80
2018-02-07T03:09:22.204Z,88.10
2018-02-07T03:11:49.835Z,87.80
2018-02-07T03:14:17.478Z,88.10
2018-02-07T03:16:45.121Z,88.20
2018-02-07T03:19:13.547Z,88.70
2018-02-07T03:21:41.174Z,88.70
2018-02-07T03:24:08.797Z,88.40
2018-02-07T03:26:36.380Z,88.10
2018-02-07T03:29:04.006Z,88.10
2018-02-07T03:31:31.594Z,88.10
2018-02-07T03:33:59.975Z,88.50
2018-02-07T03:36:28.298Z,88.30
2018-02-07T03:38:55.901Z,88.20
2018-02-07T03:41:24.278Z,89.00
2018-02-07T03:43:52.670Z,88.00
2018-02-07T03:46:21.079Z,88.00
2018-02-07T03:48:48.730Z,88.00
2018-02-07T03:51:16.339Z,88.70
2018-02-07T03:53:43.930Z,89.40
2018-02-07T03:56:11.531Z,90.10
2018-02-07T03:58:39.151Z,89.90
2018-02-07T04:01:06.730Z,90.40
2018-02-07T04:03:34.308Z,90.10
2018-02-07T04:06:01.913Z,90.20
2018-02-07T04:08:30.307Z,90.50
2018-02-07T04:10:57.942Z,90.50
2018-02-07T04:13:25.547Z,90.50
2018-02-07T04:15:53.218Z,90.50
2018-02-07T04:18:20.822Z,90.50
2018-02-07T04:20:48.442Z,90.60
2018-02-07T04:23:16.059Z,90.60
2018-02-07T04:25:43.673Z,90.70
2018-02-07T04:28:11.296Z,90.60
2018-02-07T04:30:38.871Z,90.50
2018-02-07T04:33:06.490Z,90.30
2018-02-07T04:35:53.327Z,90.00
2018-02-07T04:38:20.926Z,89.40
2018-02-07T04:40:48.584Z,89.40
2018-02-07T04:43:16.214Z,88.90
2018-02-07T04:45:43.807Z,89.50
2018-02-07T04:48:11.378Z,89.20
2018-02-07T04:50:39.029Z,90.10
2018-02-07T04:53:06.614Z,90.20
2018-02-07T04:55:34.231Z,90.20
2018-02-07T04:58:01.866Z,89.00
2018-02-07T05:00:30.246Z,89.30
2018-02-07T05:02:58.643Z,89.30
2018-02-07T05:05:26.214Z,90.00
2018-02-07T05:07:53.823Z,88.00
2018-02-07T05:10:21.426Z,86.80
2018-02-07T05:12:49.037Z,86.90
2018-02-07T05:15:16.654Z,87.10
2018-02-07T05:17:44.240Z,86.90
2018-02-07T05:20:11.854Z,87.00
2018-02-07T05:22:39.471Z,87.30
2018-02-07T05:25:07.114Z,85.90
2018-02-07T05:27:34.799Z,85.80
2018-02-07T05:30:02.397Z,85.20
2018-02-07T05:32:30.022Z,85.90
2018-02-07T05:34:57.683Z,84.70
2018-02-07T05:37:25.254Z,85.70
2018-02-07T05:39:52.873Z,85.70
2018-02-07T05:42:20.459Z,86.80
2018-02-07T05:44:48.055Z,87.40
2018-02-07T05:47:15.635Z,87.00
2018-02-07T05:49:44.109Z,85.40
2018-02-07T05:52:11.663Z,86.50
2018-02-07T05:54:39.299Z,86.90
2018-02-07T05:57:07.668Z,87.50
2018-02-07T05:59:35.288Z,87.40
2018-02-07T06:02:03.678Z,88.70
2018-02-07T06:04:31.275Z,88.60
2018-02-07T06:06:58.883Z,89.70
2018-02-07T06:09:26.493Z,89.60
2018-02-07T06:11:54.140Z,89.60
2018-02-07T06:14:27.507Z,89.80
2018-02-07T06:16:55.150Z,90.00
2018-02-07T06:19:22.786Z,89.40
2018-02-07T06:21:51.124Z,87.60
2018-02-07T06:24:18.712Z,87.60
2018-02-07T06:26:46.342Z,87.60
2018-02-07T06:29:13.926Z,87.10
2018-02-07T06:31:41.558Z,86.80
2018-02-07T06:34:09.191Z,85.70
2018-02-07T06:36:36.778Z,85.00
2018-02-07T06:39:04.386Z,86.00
2018-02-07T06:41:31.972Z,86.30
2018-02-07T06:43:59.566Z,88.00
2018-02-07T06:46:27.184Z,88.00
2018-02-07T06:48:54.774Z,86.20
2018-02-07T06:51:22.379Z,86.40
2018-02-07T06:53:49.991Z,88.40
2018-02-07T06:56:17.588Z,87.90
2018-02-07T06:58:45.170Z,88.00
2018-02-07T07:01:13.550Z,89.30
2018-02-07T07:03:41.935Z,90.10
2018-02-07T07:06:10.346Z,90.20
2018-02-07T07:08:37.946Z,90.20
2018-02-07T07:11:05.516Z,90.30
2018-02-07T07:13:33.903Z,90.30
2018-02-07T07:16:02.223Z,89.50
2018-02-07T07:18:29.824Z,89.50
2018-02-07T07:20:57.466Z,88.50
2018-02-07T07:23:25.050Z,89.10
2018-02-07T07:25:52.637Z,88.30
2018-02-07T07:28:20.240Z,87.50
2018-02-07T07:30:47.851Z,87.50
2018-02-07T07:33:15.434Z,85.60
2018-02-07T07:35:43.030Z,87.10
2018-02-07T07:38:10.611Z,88.90
2018-02-07T07:40:38.998Z,89.10
2018-02-07T07:43:07.335Z,88.50
2018-02-07T07:45:34.973Z,88.40
2018-02-07T07:48:02.580Z,89.00
2018-02-07T07:50:30.178Z,88.90
2018-02-07T07:52:57.787Z,88.10
2018-02-07T07:55:25.419Z,87.70
2018-02-07T07:57:53.003Z,88.20
2018-02-07T08:00:20.613Z,87.10
2018-02-07T08:02:48.211Z,87.30
2018-02-07T08:05:15.839Z,88.60
2018-02-07T08:07:43.488Z,89.50
2018-02-07T08:10:11.114Z,90.50
2018-02-07T08:12:38.762Z,89.40
2018-02-07T08:15:06.329Z,83.70
2018-02-07T08:17:33.967Z,82.10
2018-02-07T08:20:01.553Z,80.50
2018-02-07T08:22:29.192Z,81.80
2018-02-07T08:24:56.800Z,81.20
2018-02-07T08:27:25.179Z,81.40
2018-02-07T08:29:53.546Z,81.30
2018-02-07T08:32:21.192Z,81.10
2018-02-07T08:34:48.756Z,82.50
2018-02-07T08:37:16.338Z,81.80
2018-02-07T08:39:44.702Z,77.10
2018-02-07T08:42:12.274Z,77.10
2018-02-07T08:44:40.665Z,80.50
2018-02-07T08:47:08.990Z,79.20
2018-02-07T08:49:36.574Z,79.10
2018-02-07T09:01:05.418Z,76.40
2018-02-07T09:03:33.064Z,76.40
2018-02-07T09:06:00.649Z,75.50
2018-02-07T09:08:28.210Z,73.00
2018-02-07T09:10:55.790Z,72.00
2018-02-07T09:13:23.394Z,73.80
2018-02-07T09:15:50.954Z,71.40
2018-02-07T09:18:18.540Z,72.30
2018-02-07T09:20:46.154Z,70.30
2018-02-07T09:23:13.738Z,69.50
2018-02-07T09:25:41.301Z,69.50
2018-02-07T09:28:08.975Z,67.90
2018-02-07T09:30:36.560Z,65.30
2018-02-07T09:33:04.886Z,66.70
2018-02-07T09:35:32.517Z,66.60
2018-02-07T09:38:00.115Z,65.40
2018-02-07T09:40:27.760Z,65.20
2018-02-07T09:42:55.339Z,66.00
2018-02-07T09:45:22.978Z,64.00
2018-02-07T09:47:50.590Z,63.20
2018-02-07T09:50:18.219Z,62.50
2018-02-07T09:52:45.815Z,60.40
2018-02-07T09:55:13.441Z,61.00
2018-02-07T09:57:41.034Z,59.00
2018-02-07T10:00:08.659Z,59.00
2018-02-07T10:02:36.280Z,57.00
2018-02-07T10:05:03.919Z,56.80
2018-02-07T10:07:31.462Z,57.30
2018-02-07T10:09:59.062Z,56.80
2018-02-07T10:12:26.666Z,55.00
2018-02-07T10:14:54.254Z,54.70
2018-02-07T10:17:21.835Z,52.20
2018-02-07T10:19:49.434Z,52.90
2018-02-07T10:22:17.033Z,52.30
2018-02-07T10:24:44.635Z,52.30
2018-02-07T10:27:12.194Z,51.40
2018-02-07T10:29:39.789Z,52.30
2018-02-07T10:32:07.394Z,52.50
2018-02-07T10:34:35.009Z,52.50
2018-02-07T10:46:00.385Z,54.00
2018-02-07T10:48:27.987Z,53.30
2018-02-07T10:50:55.567Z,53.50
2018-02-07T10:53:23.174Z,53.10
2018-02-07T10:55:50.752Z,53.50
2018-02-07T10:58:19.142Z,52.60
2018-02-07T11:00:47.479Z,53.00
2018-02-07T11:03:15.096Z,53.00
2018-02-07T11:05:42.703Z,55.70
2018-02-07T11:08:10.346Z,55.50
2018-02-07T11:10:37.922Z,56.20
2018-02-07T11:13:05.529Z,55.90
2018-02-07T11:15:33.130Z,55.10
2018-02-07T11:18:00.756Z,54.80
2018-02-07T11:20:28.314Z,54.30
2018-02-07T11:22:55.939Z,54.30
2018-02-07T11:25:23.509Z,55.10
2018-02-07T11:27:51.854Z,53.50
2018-02-07T11:30:19.470Z,53.40
2018-02-07T11:32:47.056Z,52.80
2018-02-07T11:35:14.652Z,54.00
2018-02-07T11:37:42.240Z,54.60
2018-02-07T11:40:10.619Z,54.50
2018-02-07T11:42:38.182Z,54.30
2018-02-07T11:45:05.810Z,54.10
2018-02-07T11:47:33.428Z,54.20
2018-02-07T11:50:01.030Z,54.80
2018-02-07T11:52:28.630Z,54.70
2018-02-07T11:54:56.219Z,53.90
2018-02-07T11:57:23.821Z,54.00
2018-02-07T11:59:52.207Z,55.00
2018-02-07T12:02:20.590Z,55.20
2018-02-07T12:04:48.982Z,55.80
2018-02-07T12:07:16.575Z,55.80
2018-02-07T12:09:44.202Z,55.50
2018-02-07T12:12:11.827Z,56.20
2018-02-07T12:14:39.372Z,56.60
2018-02-07T12:17:06.982Z,57.10
2018-02-07T12:19:34.574Z,56.30
2018-02-07T12:22:02.151Z,56.40
2018-02-07T12:24:29.742Z,57.00
2018-02-07T12:26:58.086Z,55.10
2018-02-07T12:29:25.681Z,55.00
2018-02-07T12:31:54.026Z,55.80
2018-02-07T12:34:21.638Z,55.80
2018-02-07T12:36:49.248Z,56.40
2018-02-07T12:39:16.839Z,56.90
2018-02-07T12:41:45.223Z,56.40
2018-02-07T12:44:12.792Z,56.40
2018-02-07T12:46:41.133Z,57.00
2018-02-07T12:49:08.739Z,57.00
2018-02-07T12:51:36.339Z,57.30
2018-02-07T12:54:03.929Z,56.60
2018-02-07T12:56:31.525Z,57.20
2018-02-07T12:58:59.131Z,57.80
2018-02-07T13:01:26.691Z,57.50
2018-02-07T13:03:54.290Z,56.80
2018-02-07T13:06:21.859Z,56.90
2018-02-07T13:08:49.414Z,57.40
2018-02-07T13:11:16.992Z,56.60
2018-02-07T13:13:44.595Z,56.20
2018-02-07T13:16:12.154Z,56.90
2018-02-07T13:18:39.753Z,57.70
2018-02-07T13:21:07.366Z,58.30
2018-02-07T13:23:34.970Z,58.20
2018-02-07T13:26:02.530Z,59.00
2018-02-07T13:28:30.140Z,58.70
2018-02-07T13:30:57.766Z,58.80
2018-02-07T13:33:25.363Z,60.10
2018-02-07T13:35:52.943Z,59.90
2018-02-07T13:38:20.575Z,60.40
2018-02-07T13:40:48.157Z,61.30
2018-02-07T13:43:15.738Z,61.60
2018-02-07T13:45:44.085Z,62.70
2018-02-07T13:48:11.647Z,62.60
2018-02-07T13:50:39.251Z,63.60
2018-02-07T13:53:06.875Z,64.30
2018-02-07T13:55:34.461Z,65.70
2018-02-07T13:58:02.801Z,65.40
2018-02-07T14:00:31.159Z,65.30
2018-02-07T14:02:58.714Z,65.80
2018-02-07T14:05:26.306Z,66.00
2018-02-07T14:07:53.902Z,65.90
2018-02-07T14:10:21.524Z,65.90
2018-02-07T14:12:49.117Z,66.50
2018-02-07T14:15:17.493Z,67.20
2018-02-07T14:17:45.134Z,67.20
2018-02-07T14:20:12.726Z,67.10
2018-02-07T14:22:40.323Z,67.30
2018-02-07T14:25:07.932Z,66.40
2018-02-07T14:27:36.288Z,67.00
2018-02-07T14:30:03.838Z,67.00
2018-02-07T14:32:32.431Z,66.60
2018-02-07T14:35:00.024Z,66.60
2018-02-07T14:37:27.614Z,67.20
2018-02-07T14:39:55.254Z,66.90
2018-02-07T14:42:32.804Z,66.30
2018-02-07T14:45:01.135Z,65.80
2018-02-07T14:47:28.734Z,65.80
2018-02-07T14:49:56.304Z,66.80
2018-02-07T14:52:23.911Z,67.00
2018-02-07T14:54:51.513Z,66.70
2018-02-07T14:57:19.107Z,67.10
2018-02-07T14:59:47.469Z,66.20
2018-02-07T15:02:15.843Z,67.50
2018-02-07T15:04:43.438Z,66.70
2018-02-07T15:07:11.020Z,67.40
2018-02-07T15:09:38.614Z,66.80
2018-02-07T15:12:06.247Z,66.90
2018-02-07T15:14:33.872Z,67.10
2018-02-07T15:17:01.431Z,67.60
2018-02-07T15:19:29.025Z,68.00
2018-02-07T15:21:58.518Z,68.20
2018-02-07T15:24:26.151Z,67.00
2018-02-07T15:26:54.511Z,67.30
2018-02-07T15:29:22.062Z,67.30
2018-02-07T15:31:49.690Z,67.60
2018-02-07T15:34:17.266Z,67.70
2018-02-07T15:36:44.887Z,67.40
2018-02-07T15:39:13.045Z,67.10
2018-02-07T15:41:40.664Z,67.60
2018-02-07T15:44:08.270Z,67.00
2018-02-07T15:46:35.886Z,66.70
2018-02-07T15:49:03.520Z,65.60
2018-02-07T15:51:31.146Z,66.10
2018-02-07T15:53:59.551Z,66.40
2018-02-07T15:56:27.174Z,66.40
2018-02-07T15:58:54.720Z,66.50
2018-02-07T16:01:22.397Z,66.30
2018-02-07T16:03:49.936Z,66.30
2018-02-07T16:06:17.527Z,66.00
2018-02-07T16:08:45.892Z,66.40
2018-02-07T16:11:14.241Z,66.80
2018-02-07T16:13:41.863Z,66.70
2018-02-07T16:16:09.490Z,67.10
2018-02-07T16:18:37.870Z,66.90
2018-02-07T16:21:05.481Z,66.90
2018-02-07T16:23:33.060Z,66.80
2018-02-07T16:26:00.659Z,67.00
2018-02-07T16:28:29.030Z,67.40
2018-02-07T16:30:57.379Z,67.60
2018-02-07T16:33:28.980Z,67.60
2018-02-07T16:35:56.546Z,67.60
2018-02-07T16:38:24.126Z,67.80
2018-02-07T16:40:51.722Z,68.20
2018-02-07T16:43:19.322Z,68.00
2018-02-07T16:45:46.932Z,68.70
2018-02-07T16:48:14.573Z,68.70
2018-02-07T16:51:17.571Z,67.30
2018-02-07T16:53:45.168Z,66.80
2018-02-07T16:56:13.513Z,67.70
2018-02-07T16:58:41.104Z,67.50
2018-02-07T17:01:08.679Z,67.50
2018-02-07T17:03:36.293Z,67.60
2018-02-07T17:06:03.919Z,68.20
2018-02-07T17:08:31.499Z,67.90
2018-02-07T17:10:59.144Z,67.90
2018-02-07T17:13:26.753Z,68.60
2018-02-07T17:15:54.336Z,68.60
2018-02-07T17:18:22.687Z,67.90
2018-02-07T17:20:50.342Z,67.90
2018-02-07T17:23:21.191Z,67.90
2018-02-07T17:25:48.784Z,68.00
2018-02-07T17:28:16.417Z,68.50
2018-02-07T17:30:43.999Z,67.60
2018-02-07T17:33:12.360Z,68.10
2018-02-07T17:35:39.935Z,68.10
2018-02-07T17:38:08.309Z,68.00
2018-02-07T17:40:36.685Z,68.80
2018-02-07T17:43:05.065Z,68.50
2018-02-07T17:45:33.412Z,68.80
2018-02-07T17:48:01.018Z,68.60
2018-02-07T17:50:28.608Z,68.10
2018-02-07T17:52:56.227Z,67.70
2018-02-07T17:55:25.506Z,66.80
2018-02-07T17:57:53.078Z,66.80
2018-02-07T18:00:21.451Z,66.60
2018-02-07T18:02:55.658Z,66.50
2018-02-07T18:05:23.265Z,67.10
2018-02-07T18:07:50.940Z,67.70
2018-02-07T18:10:43.444Z,67.40
2018-02-07T18:13:15.403Z,68.20
2018-02-07T18:15:43.778Z,68.70
2018-02-07T18:18:35.645Z,67.70
2018-02-07T18:21:03.273Z,68.20
2018-02-07T18:23:31.663Z,68.50
2018-02-07T18:25:59.239Z,68.40
2018-02-07T18:28:26.861Z,68.30
2018-02-07T18:30:54.468Z,68.60
2018-02-07T18:33:22.151Z,68.30
2018-02-07T18:35:49.728Z,68.50
2018-02-07T18:38:24.408Z,68.50
2018-02-07T18:40:52.017Z,68.90
2018-02-07T18:43:19.601Z,68.70
2018-02-07T18:45:47.979Z,69.10
2018-02-07T18:48:30.357Z,68.70
2018-02-07T18:50:58.012Z,68.50
2018-02-07T18:53:25.625Z,68.70
2018-02-07T18:55:53.238Z,69.00
2018-02-07T18:58:20.833Z,69.40
2018-02-07T19:00:48.431Z,69.00
2018-02-07T19:03:16.074Z,69.10
2018-02-07T19:05:43.698Z,69.10
2018-02-07T19:08:11.312Z,69.20
2018-02-07T19:10:38.902Z,69.80
2018-02-07T19:13:06.557Z,69.30
2018-02-07T19:15:34.173Z,69.60
2018-02-07T19:18:02.761Z,70.50
2018-02-07T19:20:30.417Z,71.30
2018-02-07T19:25:59.076Z,70.60
2018-02-07T19:28:26.734Z,70.40
2018-02-07T19:30:54.306Z,71.20
2018-02-07T19:33:21.915Z,71.20
2018-02-07T19:35:49.518Z,72.70
2018-02-07T19:38:17.159Z,71.80
2018-02-07T19:40:44.766Z,71.60
2018-02-07T19:43:17.939Z,72.00
2018-02-07T19:45:57.538Z,72.00
2018-02-07T19:48:25.129Z,72.20
2018-02-07T19:50:52.739Z,71.60
2018-02-07T19:53:20.327Z,71.60
2018-02-07T19:55:47.934Z,71.00
2018-02-07T19:58:16.325Z,71.20
2018-02-07T20:00:44.705Z,71.50
2018-02-07T20:03:12.294Z,71.50
2018-02-07T20:05:39.934Z,72.60
2018-02-07T20:08:07.502Z,72.90
2018-02-07T20:10:35.131Z,72.90
2018-02-07T20:13:03.505Z,73.80
2018-02-07T20:15:31.137Z,73.20
2018-02-07T20:17:58.750Z,73.50
2018-02-07T20:20:26.352Z,73.90
2018-02-07T20:22:53.959Z,73.00
2018-02-07T20:25:22.337Z,72.80
2018-02-07T20:27:50.752Z,73.70
2018-02-07T20:30:18.399Z,73.70
2018-02-07T20:32:46.006Z,73.00
2018-02-07T20:35:13.623Z,73.70
2018-02-07T20:37:41.183Z,74.90
2018-02-07T20:40:08.810Z,75.30
2018-02-07T20:42:37.203Z,77.70
2018-02-07T20:45:05.592Z,78.10
2018-02-07T20:47:33.202Z,78.10
2018-02-07T20:50:00.861Z,78.40
2018-02-07T20:52:30.498Z,79.80
2018-02-07T20:54:58.908Z,80.90
2018-02-07T20:57:26.559Z,80.90
2018-02-07T21:00:04.504Z,81.70
2018-02-07T21:02:32.048Z,82.30
2018-02-07T21:04:59.617Z,82.90
2018-02-07T21:07:27.226Z,83.60
2018-02-07T21:09:55.595Z,83.20
2018-02-07T21:12:23.999Z,83.70
2018-02-07T21:14:51.619Z,83.70
2018-02-07T21:17:19.272Z,83.80
2018-02-07T21:19:46.899Z,83.50
2018-02-07T21:22:14.523Z,84.70
2018-02-07T21:24:42.901Z,85.70
2018-02-07T21:27:11.247Z,85.80
2018-02-07T21:29:38.850Z,85.70
2018-02-07T21:32:07.386Z,85.70
2018-02-07T21:34:35.017Z,85.70
2018-02-07T21:37:02.642Z,86.60
2018-02-07T21:39:31.029Z,86.60
2018-02-07T21:41:59.389Z,86.80
2018-02-07T21:44:26.963Z,86.80
2018-02-07T21:46:54.594Z,87.10
2018-02-07T21:49:22.179Z,87.20
2018-02-07T21:51:50.568Z,87.20
2018-02-07T21:54:18.181Z,87.20
2018-02-07T21:56:45.762Z,87.40
2018-02-07T21:59:14.196Z,87.80
2018-02-07T22:01:41.784Z,86.90
2018-02-07T22:04:09.445Z,87.40
2018-02-07T22:06:37.006Z,87.90
2018-02-07T22:09:04.639Z,87.90
2018-02-07T22:11:32.262Z,87.90
2018-02-07T22:14:00.660Z,88.10
2018-02-07T22:16:28.243Z,88.00
2018-02-07T22:18:55.884Z,88.10
2018-02-07T22:21:23.511Z,87.80
2018-02-07T22:23:51.123Z,87.70
2018-02-07T22:26:18.734Z,87.60
2018-02-07T22:28:46.315Z,87.50
2018-02-07T22:31:13.966Z,87.50
2018-02-07T22:33:41.543Z,87.10
2018-02-07T22:36:09.151Z,87.00
2018-02-07T22:38:36.775Z,87.00
2018-02-07T22:41:04.370Z,87.00
2018-02-07T22:43:32.007Z,87.30
2018-02-07T22:45:59.643Z,87.40
2018-02-07T22:48:27.254Z,87.20
2018-02-07T22:50:54.908Z,87.20
2018-02-07T22:53:22.536Z,87.10
2018-02-07T22:55:50.144Z,87.00
2018-02-07T22:58:17.796Z,86.70
2018-02-07T23:00:45.418Z,86.40
2018-02-07T23:03:13.035Z,86.20
2018-02-07T23:05:40.647Z,86.30
2018-02-07T23:08:08.251Z,86.40
2018-02-07T23:10:35.833Z,86.40
2018-02-07T23:13:04.177Z,86.00
2018-02-07T23:15:31.822Z,85.90
2018-02-07T23:17:59.457Z,85.80
2018-02-07T23:20:27.088Z,86.30
2018-02-07T23:22:55.438Z,86.80
2018-02-07T23:25:23.101Z,86.70
2018-02-07T23:27:50.675Z,86.30
2018-02-07T23:30:18.322Z,86.40
2018-02-07T23:32:45.889Z,86.40
2018-02-07T23:35:13.460Z,86.20
2018-02-07T23:37:41.082Z,86.20
2018-02-07T23:40:08.721Z,85.70
2018-02-07T23:42:36.287Z,85.40
2018-02-07T23:45:03.851Z,85.20
2018-02-07T23:47:31.443Z,85.40
2018-02-07T23:49:59.074Z,84.90
2018-02-07T23:52:26.651Z,85.10
2018-02-07T23:54:54.244Z,84.90
2018-02-07T23:57:35.442Z,85.50
